sensor_id;sensor_type;location;lat;lon;timestamp;P1;durP1;ratioP1;P2;durP2;ratioP2
30289;SDS011;17105;55.652;37.710;2023-03-12T00:00:18;43.10;;;26.23;;
30289;SDS011;17105;55.652;37.710;2023-03-12T00:00:53;12.50;;;7.82;;
30289;SDS011;17105;55.652;37.710;2023-03-12T00:01:27;9.77;;;6.30;;
30289;SDS011;17105;55.652;37.710;2023-03-12T00:02:02;10.48;;;6.38;;
30289;SDS011;17105;55.652;37.710;2023-03-12T00:02:38;11.35;;;6.30;;
30289;SDS011;17105;55.652;37.710;2023-03-12T00:03:13;10.85;;;6.30;;
30289;SDS011;17105;55.652;37.710;2023-03-12T00:03:47;10.13;;;5.80;;
30289;SDS011;17105;55.652;37.710;2023-03-12T00:04:24;10.38;;;5.70;;
30289;SDS011;17105;55.652;37.710;2023-03-12T00:04:58;9.75;;;5.57;;
30289;SDS011;17105;55.652;37.710;2023-03-12T00:05:35;10.35;;;5.47;;
30289;SDS011;17105;55.652;37.710;2023-03-12T00:06:10;8.75;;;5.22;;
30289;SDS011;17105;55.652;37.710;2023-03-12T00:06:44;9.20;;;5.30;;
30289;SDS011;17105;55.652;37.710;2023-03-12T00:07:18;8.88;;;5.07;;
30289;SDS011;17105;55.652;37.710;2023-03-12T00:07:53;7.38;;;4.30;;
30289;SDS011;17105;55.652;37.710;2023-03-12T00:08:31;7.93;;;4.43;;
30289;SDS011;17105;55.652;37.710;2023-03-12T00:09:06;8.57;;;4.80;;
30289;SDS011;17105;55.652;37.710;2023-03-12T00:09:41;9.75;;;4.80;;
30289;SDS011;17105;55.652;37.710;2023-03-12T00:10:16;7.65;;;4.70;;
30289;SDS011;17105;55.652;37.710;2023-03-12T00:10:50;6.93;;;4.07;;
30289;SDS011;17105;55.652;37.710;2023-03-12T00:11:25;8.07;;;4.32;;
30289;SDS011;17105;55.652;37.710;2023-03-12T00:11:58;7.03;;;3.78;;
30289;SDS011;17105;55.652;37.710;2023-03-12T00:12:32;7.45;;;3.40;;
30289;SDS011;17105;55.652;37.710;2023-03-12T00:13:08;6.72;;;3.50;;
30289;SDS011;17105;55.652;37.710;2023-03-12T00:13:42;6.53;;;3.60;;
30289;SDS011;17105;55.652;37.710;2023-03-12T00:14:15;7.18;;;3.50;;
30289;SDS011;17105;55.652;37.710;2023-03-12T00:14:50;6.85;;;3.78;;
30289;SDS011;17105;55.652;37.710;2023-03-12T00:15:26;5.75;;;3.03;;
30289;SDS011;17105;55.652;37.710;2023-03-12T00:16:04;6.43;;;3.42;;
30289;SDS011;17105;55.652;37.710;2023-03-12T00:16:39;6.70;;;3.13;;
30289;SDS011;17105;55.652;37.710;2023-03-12T00:17:14;7.55;;;3.42;;
30289;SDS011;17105;55.652;37.710;2023-03-12T00:17:49;4.55;;;2.53;;
30289;SDS011;17105;55.652;37.710;2023-03-12T00:18:23;6.03;;;2.80;;
30289;SDS011;17105;55.652;37.710;2023-03-12T00:18:58;5.63;;;3.00;;
30289;SDS011;17105;55.652;37.710;2023-03-12T00:19:33;5.63;;;3.15;;
30289;SDS011;17105;55.652;37.710;2023-03-12T00:20:08;5.57;;;3.10;;
30289;SDS011;17105;55.652;37.710;2023-03-12T00:20:44;5.05;;;2.67;;
30289;SDS011;17105;55.652;37.710;2023-03-12T00:21:26;6.70;;;3.00;;
30289;SDS011;17105;55.652;37.710;2023-03-12T00:22:02;4.85;;;2.30;;
30289;SDS011;17105;55.652;37.710;2023-03-12T00:22:37;4.55;;;2.65;;
30289;SDS011;17105;55.652;37.710;2023-03-12T00:23:12;4.47;;;2.60;;
30289;SDS011;17105;55.652;37.710;2023-03-12T00:23:46;6.03;;;2.60;;
30289;SDS011;17105;55.652;37.710;2023-03-12T00:24:21;7.55;;;2.75;;
30289;SDS011;17105;55.652;37.710;2023-03-12T00:24:55;5.18;;;2.60;;
30289;SDS011;17105;55.652;37.710;2023-03-12T00:25:29;4.30;;;2.45;;
30289;SDS011;17105;55.652;37.710;2023-03-12T00:26:06;4.93;;;2.58;;
30289;SDS011;17105;55.652;37.710;2023-03-12T00:26:40;4.90;;;2.55;;
30289;SDS011;17105;55.652;37.710;2023-03-12T00:27:14;6.15;;;2.30;;
30289;SDS011;17105;55.652;37.710;2023-03-12T00:27:48;5.10;;;2.42;;
30289;SDS011;17105;55.652;37.710;2023-03-12T00:28:22;4.57;;;2.55;;
30289;SDS011;17105;55.652;37.710;2023-03-12T00:28:57;4.88;;;2.80;;
30289;SDS011;17105;55.652;37.710;2023-03-12T00:29:32;7.15;;;2.67;;
30289;SDS011;17105;55.652;37.710;2023-03-12T00:30:06;4.40;;;2.50;;
30289;SDS011;17105;55.652;37.710;2023-03-12T00:30:40;4.40;;;2.50;;
30289;SDS011;17105;55.652;37.710;2023-03-12T00:31:16;5.00;;;2.58;;
30289;SDS011;17105;55.652;37.710;2023-03-12T00:31:50;5.57;;;2.63;;
30289;SDS011;17105;55.652;37.710;2023-03-12T00:32:23;4.10;;;2.30;;
30289;SDS011;17105;55.652;37.710;2023-03-12T00:32:58;4.88;;;2.50;;
30289;SDS011;17105;55.652;37.710;2023-03-12T00:33:33;5.22;;;2.78;;
30289;SDS011;17105;55.652;37.710;2023-03-12T00:34:08;5.13;;;2.83;;
30289;SDS011;17105;55.652;37.710;2023-03-12T00:34:48;5.00;;;2.75;;
30289;SDS011;17105;55.652;37.710;2023-03-12T00:35:23;5.60;;;2.85;;
30289;SDS011;17105;55.652;37.710;2023-03-12T00:35:58;5.55;;;2.83;;
30289;SDS011;17105;55.652;37.710;2023-03-12T00:36:33;6.53;;;3.10;;
30289;SDS011;17105;55.652;37.710;2023-03-12T00:37:07;5.10;;;2.50;;
30289;SDS011;17105;55.652;37.710;2023-03-12T00:37:41;12.45;;;5.72;;
30289;SDS011;17105;55.652;37.710;2023-03-12T00:38:17;13.55;;;6.85;;
30289;SDS011;17105;55.652;37.710;2023-03-12T00:38:52;5.60;;;3.13;;
30289;SDS011;17105;55.652;37.710;2023-03-12T00:39:26;5.45;;;2.90;;
30289;SDS011;17105;55.652;37.710;2023-03-12T00:40:03;4.50;;;2.70;;
30289;SDS011;17105;55.652;37.710;2023-03-12T00:40:37;6.25;;;2.92;;
30289;SDS011;17105;55.652;37.710;2023-03-12T00:41:11;5.90;;;3.20;;
30289;SDS011;17105;55.652;37.710;2023-03-12T00:41:46;5.40;;;3.13;;
30289;SDS011;17105;55.652;37.710;2023-03-12T00:42:20;4.28;;;2.50;;
30289;SDS011;17105;55.652;37.710;2023-03-12T00:42:54;5.25;;;2.97;;
30289;SDS011;17105;55.652;37.710;2023-03-12T00:43:31;5.97;;;3.30;;
30289;SDS011;17105;55.652;37.710;2023-03-12T00:44:05;6.25;;;3.17;;
30289;SDS011;17105;55.652;37.710;2023-03-12T00:44:40;6.07;;;3.20;;
30289;SDS011;17105;55.652;37.710;2023-03-12T00:45:16;6.57;;;2.72;;
30289;SDS011;17105;55.652;37.710;2023-03-12T00:45:49;5.13;;;2.75;;
30289;SDS011;17105;55.652;37.710;2023-03-12T00:46:23;7.75;;;3.13;;
30289;SDS011;17105;55.652;37.710;2023-03-12T00:46:58;6.00;;;2.90;;
30289;SDS011;17105;55.652;37.710;2023-03-12T00:47:32;6.72;;;2.90;;
30289;SDS011;17105;55.652;37.710;2023-03-12T00:48:06;5.97;;;2.90;;
30289;SDS011;17105;55.652;37.710;2023-03-12T00:48:41;5.13;;;2.90;;
30289;SDS011;17105;55.652;37.710;2023-03-12T00:49:15;5.55;;;3.08;;
30289;SDS011;17105;55.652;37.710;2023-03-12T00:49:49;4.60;;;2.72;;
30289;SDS011;17105;55.652;37.710;2023-03-12T00:50:23;4.72;;;2.58;;
30289;SDS011;17105;55.652;37.710;2023-03-12T00:50:57;6.03;;;3.10;;
30289;SDS011;17105;55.652;37.710;2023-03-12T00:51:31;6.40;;;2.63;;
30289;SDS011;17105;55.652;37.710;2023-03-12T00:52:08;4.65;;;2.60;;
30289;SDS011;17105;55.652;37.710;2023-03-12T00:52:42;5.90;;;2.72;;
30289;SDS011;17105;55.652;37.710;2023-03-12T00:53:18;5.63;;;2.90;;
30289;SDS011;17105;55.652;37.710;2023-03-12T00:53:53;5.07;;;2.72;;
30289;SDS011;17105;55.652;37.710;2023-03-12T00:54:28;5.80;;;2.78;;
30289;SDS011;17105;55.652;37.710;2023-03-12T00:55:02;4.57;;;2.65;;
30289;SDS011;17105;55.652;37.710;2023-03-12T00:55:37;5.63;;;2.90;;
30289;SDS011;17105;55.652;37.710;2023-03-12T00:56:12;5.72;;;3.00;;
30289;SDS011;17105;55.652;37.710;2023-03-12T00:56:46;5.32;;;3.00;;
30289;SDS011;17105;55.652;37.710;2023-03-12T00:57:19;4.93;;;2.92;;
30289;SDS011;17105;55.652;37.710;2023-03-12T00:57:54;4.82;;;2.83;;
30289;SDS011;17105;55.652;37.710;2023-03-12T00:58:29;5.75;;;3.13;;
30289;SDS011;17105;55.652;37.710;2023-03-12T00:59:03;6.03;;;3.45;;
30289;SDS011;17105;55.652;37.710;2023-03-12T00:59:36;5.40;;;2.88;;
30289;SDS011;17105;55.652;37.710;2023-03-12T01:00:12;5.53;;;3.00;;
30289;SDS011;17105;55.652;37.710;2023-03-12T01:00:46;5.60;;;3.08;;
30289;SDS011;17105;55.652;37.710;2023-03-12T01:01:20;6.30;;;3.58;;
30289;SDS011;17105;55.652;37.710;2023-03-12T01:01:55;7.88;;;3.85;;
30289;SDS011;17105;55.652;37.710;2023-03-12T01:02:29;5.80;;;3.20;;
30289;SDS011;17105;55.652;37.710;2023-03-12T01:03:03;5.55;;;3.15;;
30289;SDS011;17105;55.652;37.710;2023-03-12T01:03:38;7.00;;;3.10;;
30289;SDS011;17105;55.652;37.710;2023-03-12T01:04:13;7.13;;;3.47;;
30289;SDS011;17105;55.652;37.710;2023-03-12T01:04:49;5.93;;;3.28;;
30289;SDS011;17105;55.652;37.710;2023-03-12T01:05:24;6.65;;;3.30;;
30289;SDS011;17105;55.652;37.710;2023-03-12T01:05:57;6.65;;;3.47;;
30289;SDS011;17105;55.652;37.710;2023-03-12T01:06:31;6.38;;;3.35;;
30289;SDS011;17105;55.652;37.710;2023-03-12T01:07:05;5.80;;;3.50;;
30289;SDS011;17105;55.652;37.710;2023-03-12T01:07:39;7.53;;;3.90;;
30289;SDS011;17105;55.652;37.710;2023-03-12T01:08:13;7.95;;;3.95;;
30289;SDS011;17105;55.652;37.710;2023-03-12T01:08:51;7.68;;;4.18;;
30289;SDS011;17105;55.652;37.710;2023-03-12T01:09:26;8.40;;;4.13;;
30289;SDS011;17105;55.652;37.710;2023-03-12T01:10:01;8.10;;;4.13;;
30289;SDS011;17105;55.652;37.710;2023-03-12T01:10:36;9.40;;;4.18;;
30289;SDS011;17105;55.652;37.710;2023-03-12T01:11:13;7.95;;;4.22;;
30289;SDS011;17105;55.652;37.710;2023-03-12T01:11:49;9.48;;;4.47;;
30289;SDS011;17105;55.652;37.710;2023-03-12T01:12:24;9.38;;;4.47;;
30289;SDS011;17105;55.652;37.710;2023-03-12T01:12:58;7.93;;;4.32;;
30289;SDS011;17105;55.652;37.710;2023-03-12T01:13:33;8.65;;;4.30;;
30289;SDS011;17105;55.652;37.710;2023-03-12T01:14:07;9.07;;;4.28;;
30289;SDS011;17105;55.652;37.710;2023-03-12T01:14:42;8.93;;;4.65;;
30289;SDS011;17105;55.652;37.710;2023-03-12T01:15:17;10.25;;;4.60;;
30289;SDS011;17105;55.652;37.710;2023-03-12T01:15:51;9.55;;;5.25;;
30289;SDS011;17105;55.652;37.710;2023-03-12T01:16:24;8.05;;;4.53;;
30289;SDS011;17105;55.652;37.710;2023-03-12T01:17:01;9.85;;;5.25;;
30289;SDS011;17105;55.652;37.710;2023-03-12T01:17:35;8.57;;;4.50;;
30289;SDS011;17105;55.652;37.710;2023-03-12T01:18:10;9.10;;;5.15;;
30289;SDS011;17105;55.652;37.710;2023-03-12T01:18:43;11.68;;;5.55;;
30289;SDS011;17105;55.652;37.710;2023-03-12T01:19:18;11.48;;;5.15;;
30289;SDS011;17105;55.652;37.710;2023-03-12T01:19:52;9.98;;;5.18;;
30289;SDS011;17105;55.652;37.710;2023-03-12T01:20:26;9.63;;;5.38;;
30289;SDS011;17105;55.652;37.710;2023-03-12T01:21:02;10.45;;;5.55;;
30289;SDS011;17105;55.652;37.710;2023-03-12T01:21:36;9.98;;;5.47;;
30289;SDS011;17105;55.652;37.710;2023-03-12T01:22:11;12.43;;;5.82;;
30289;SDS011;17105;55.652;37.710;2023-03-12T01:22:45;10.85;;;5.18;;
30289;SDS011;17105;55.652;37.710;2023-03-12T01:23:19;11.80;;;5.43;;
30289;SDS011;17105;55.652;37.710;2023-03-12T01:23:57;16.50;;;6.22;;
30289;SDS011;17105;55.652;37.710;2023-03-12T01:24:31;12.27;;;6.03;;
30289;SDS011;17105;55.652;37.710;2023-03-12T01:25:05;12.65;;;5.80;;
30289;SDS011;17105;55.652;37.710;2023-03-12T01:25:42;11.73;;;5.47;;
30289;SDS011;17105;55.652;37.710;2023-03-12T01:26:16;12.95;;;6.10;;
30289;SDS011;17105;55.652;37.710;2023-03-12T01:26:52;11.98;;;6.55;;
30289;SDS011;17105;55.652;37.710;2023-03-12T01:27:26;11.93;;;6.25;;
30289;SDS011;17105;55.652;37.710;2023-03-12T01:28:02;11.77;;;6.22;;
30289;SDS011;17105;55.652;37.710;2023-03-12T01:28:37;11.10;;;6.28;;
30289;SDS011;17105;55.652;37.710;2023-03-12T01:29:11;11.95;;;6.65;;
30289;SDS011;17105;55.652;37.710;2023-03-12T01:29:45;12.50;;;6.13;;
30289;SDS011;17105;55.652;37.710;2023-03-12T01:30:20;12.00;;;6.40;;
30289;SDS011;17105;55.652;37.710;2023-03-12T01:30:55;13.30;;;6.55;;
30289;SDS011;17105;55.652;37.710;2023-03-12T01:31:29;12.23;;;6.40;;
30289;SDS011;17105;55.652;37.710;2023-03-12T01:32:04;15.30;;;6.80;;
30289;SDS011;17105;55.652;37.710;2023-03-12T01:32:39;13.38;;;6.90;;
30289;SDS011;17105;55.652;37.710;2023-03-12T01:33:14;12.27;;;6.30;;
30289;SDS011;17105;55.652;37.710;2023-03-12T01:33:48;14.20;;;6.65;;
30289;SDS011;17105;55.652;37.710;2023-03-12T01:34:25;12.82;;;6.60;;
30289;SDS011;17105;55.652;37.710;2023-03-12T01:34:59;15.50;;;7.13;;
30289;SDS011;17105;55.652;37.710;2023-03-12T01:35:34;13.52;;;6.60;;
30289;SDS011;17105;55.652;37.710;2023-03-12T01:36:15;14.75;;;6.95;;
30289;SDS011;17105;55.652;37.710;2023-03-12T01:36:52;13.65;;;6.80;;
30289;SDS011;17105;55.652;37.710;2023-03-12T01:37:30;13.25;;;6.68;;
30289;SDS011;17105;55.652;37.710;2023-03-12T01:38:05;55.33;;;28.88;;
30289;SDS011;17105;55.652;37.710;2023-03-12T01:38:40;14.27;;;7.07;;
30289;SDS011;17105;55.652;37.710;2023-03-12T01:39:15;15.10;;;7.43;;
30289;SDS011;17105;55.652;37.710;2023-03-12T01:39:49;16.52;;;7.50;;
30289;SDS011;17105;55.652;37.710;2023-03-12T01:40:23;14.15;;;6.70;;
30289;SDS011;17105;55.652;37.710;2023-03-12T01:41:00;13.07;;;6.63;;
30289;SDS011;17105;55.652;37.710;2023-03-12T01:41:35;15.55;;;7.25;;
30289;SDS011;17105;55.652;37.710;2023-03-12T01:42:09;15.70;;;7.15;;
30289;SDS011;17105;55.652;37.710;2023-03-12T01:42:42;14.43;;;7.28;;
30289;SDS011;17105;55.652;37.710;2023-03-12T01:43:25;13.10;;;7.18;;
30289;SDS011;17105;55.652;37.710;2023-03-12T01:44:01;14.70;;;7.70;;
30289;SDS011;17105;55.652;37.710;2023-03-12T01:44:51;13.00;;;6.97;;
30289;SDS011;17105;55.652;37.710;2023-03-12T01:46:32;16.10;;;6.53;;
30289;SDS011;17105;55.652;37.710;2023-03-12T01:47:31;13.55;;;6.82;;
30289;SDS011;17105;55.652;37.710;2023-03-12T01:48:11;13.90;;;7.03;;
30289;SDS011;17105;55.652;37.710;2023-03-12T01:48:47;14.15;;;7.53;;
30289;SDS011;17105;55.652;37.710;2023-03-12T01:49:26;18.30;;;7.93;;
30289;SDS011;17105;55.652;37.710;2023-03-12T01:50:05;15.48;;;7.90;;
30289;SDS011;17105;55.652;37.710;2023-03-12T01:50:39;15.23;;;7.20;;
30289;SDS011;17105;55.652;37.710;2023-03-12T01:51:14;14.93;;;7.35;;
30289;SDS011;17105;55.652;37.710;2023-03-12T01:51:53;15.38;;;7.85;;
30289;SDS011;17105;55.652;37.710;2023-03-12T01:52:34;13.95;;;7.35;;
30289;SDS011;17105;55.652;37.710;2023-03-12T01:53:11;16.08;;;8.02;;
30289;SDS011;17105;55.652;37.710;2023-03-12T01:53:45;16.85;;;7.72;;
30289;SDS011;17105;55.652;37.710;2023-03-12T01:54:24;14.63;;;7.95;;
30289;SDS011;17105;55.652;37.710;2023-03-12T01:55:04;18.05;;;9.00;;
30289;SDS011;17105;55.652;37.710;2023-03-12T01:55:45;14.82;;;7.70;;
30289;SDS011;17105;55.652;37.710;2023-03-12T01:56:19;15.68;;;7.90;;
30289;SDS011;17105;55.652;37.710;2023-03-12T01:56:54;17.83;;;8.02;;
30289;SDS011;17105;55.652;37.710;2023-03-12T01:57:30;16.45;;;8.02;;
30289;SDS011;17105;55.652;37.710;2023-03-12T01:58:11;15.65;;;7.75;;
30289;SDS011;17105;55.652;37.710;2023-03-12T01:58:47;16.40;;;7.85;;
30289;SDS011;17105;55.652;37.710;2023-03-12T01:59:24;17.48;;;8.18;;
30289;SDS011;17105;55.652;37.710;2023-03-12T02:00:04;14.95;;;8.13;;
30289;SDS011;17105;55.652;37.710;2023-03-12T02:00:44;16.35;;;7.75;;
30289;SDS011;17105;55.652;37.710;2023-03-12T02:01:18;17.00;;;8.10;;
30289;SDS011;17105;55.652;37.710;2023-03-12T02:01:54;15.25;;;7.95;;
30289;SDS011;17105;55.652;37.710;2023-03-12T02:02:29;15.85;;;8.13;;
30289;SDS011;17105;55.652;37.710;2023-03-12T02:03:05;15.50;;;7.88;;
30289;SDS011;17105;55.652;37.710;2023-03-12T02:03:42;19.30;;;8.63;;
30289;SDS011;17105;55.652;37.710;2023-03-12T02:04:20;16.55;;;7.63;;
30289;SDS011;17105;55.652;37.710;2023-03-12T02:04:59;15.13;;;7.65;;
30289;SDS011;17105;55.652;37.710;2023-03-12T02:05:40;20.25;;;8.20;;
30289;SDS011;17105;55.652;37.710;2023-03-12T02:06:18;18.40;;;8.52;;
30289;SDS011;17105;55.652;37.710;2023-03-12T02:06:58;19.17;;;8.23;;
30289;SDS011;17105;55.652;37.710;2023-03-12T02:07:36;18.77;;;7.75;;
30289;SDS011;17105;55.652;37.710;2023-03-12T02:08:11;17.40;;;8.20;;
30289;SDS011;17105;55.652;37.710;2023-03-12T02:08:46;17.42;;;8.30;;
30289;SDS011;17105;55.652;37.710;2023-03-12T02:09:20;14.98;;;8.07;;
30289;SDS011;17105;55.652;37.710;2023-03-12T02:09:56;17.75;;;8.25;;
30289;SDS011;17105;55.652;37.710;2023-03-12T02:10:30;18.80;;;8.50;;
30289;SDS011;17105;55.652;37.710;2023-03-12T02:11:04;17.52;;;8.77;;
30289;SDS011;17105;55.652;37.710;2023-03-12T02:11:38;17.15;;;8.18;;
30289;SDS011;17105;55.652;37.710;2023-03-12T02:12:12;18.38;;;8.77;;
30289;SDS011;17105;55.652;37.710;2023-03-12T02:12:45;18.88;;;8.85;;
30289;SDS011;17105;55.652;37.710;2023-03-12T02:13:19;15.65;;;8.30;;
30289;SDS011;17105;55.652;37.710;2023-03-12T02:13:54;16.70;;;8.85;;
30289;SDS011;17105;55.652;37.710;2023-03-12T02:14:27;16.05;;;7.78;;
30289;SDS011;17105;55.652;37.710;2023-03-12T02:15:03;13.85;;;7.28;;
30289;SDS011;17105;55.652;37.710;2023-03-12T02:15:38;16.40;;;8.10;;
30289;SDS011;17105;55.652;37.710;2023-03-12T02:16:11;17.10;;;7.47;;
30289;SDS011;17105;55.652;37.710;2023-03-12T02:16:45;16.17;;;8.15;;
30289;SDS011;17105;55.652;37.710;2023-03-12T02:17:20;15.88;;;8.38;;
30289;SDS011;17105;55.652;37.710;2023-03-12T02:17:54;16.20;;;8.55;;
30289;SDS011;17105;55.652;37.710;2023-03-12T02:18:29;15.27;;;7.55;;
30289;SDS011;17105;55.652;37.710;2023-03-12T02:19:06;17.83;;;8.38;;
30289;SDS011;17105;55.652;37.710;2023-03-12T02:19:52;14.80;;;7.57;;
30289;SDS011;17105;55.652;37.710;2023-03-12T02:20:33;15.85;;;7.88;;
30289;SDS011;17105;55.652;37.710;2023-03-12T02:21:15;15.13;;;7.88;;
30289;SDS011;17105;55.652;37.710;2023-03-12T02:21:51;17.15;;;7.60;;
30289;SDS011;17105;55.652;37.710;2023-03-12T02:22:26;16.50;;;8.35;;
30289;SDS011;17105;55.652;37.710;2023-03-12T02:23:02;21.65;;;8.15;;
30289;SDS011;17105;55.652;37.710;2023-03-12T02:23:41;17.98;;;8.07;;
30289;SDS011;17105;55.652;37.710;2023-03-12T02:24:25;15.85;;;7.63;;
30289;SDS011;17105;55.652;37.710;2023-03-12T02:25:17;15.70;;;7.95;;
30289;SDS011;17105;55.652;37.710;2023-03-12T02:26:02;14.98;;;7.85;;
30289;SDS011;17105;55.652;37.710;2023-03-12T02:26:40;14.82;;;7.57;;
30289;SDS011;17105;55.652;37.710;2023-03-12T02:27:14;17.23;;;7.97;;
30289;SDS011;17105;55.652;37.710;2023-03-12T02:27:49;16.17;;;7.63;;
30289;SDS011;17105;55.652;37.710;2023-03-12T02:28:26;15.50;;;7.47;;
30289;SDS011;17105;55.652;37.710;2023-03-12T02:29:01;16.25;;;8.25;;
30289;SDS011;17105;55.652;37.710;2023-03-12T02:29:37;15.95;;;7.93;;
30289;SDS011;17105;55.652;37.710;2023-03-12T02:30:14;15.90;;;8.02;;
30289;SDS011;17105;55.652;37.710;2023-03-12T02:30:51;14.88;;;8.10;;
30289;SDS011;17105;55.652;37.710;2023-03-12T02:31:30;15.10;;;7.57;;
30289;SDS011;17105;55.652;37.710;2023-03-12T02:32:14;14.38;;;7.53;;
30289;SDS011;17105;55.652;37.710;2023-03-12T02:32:52;17.80;;;7.95;;
30289;SDS011;17105;55.652;37.710;2023-03-12T02:33:27;17.48;;;8.10;;
30289;SDS011;17105;55.652;37.710;2023-03-12T02:34:02;18.27;;;7.88;;
30289;SDS011;17105;55.652;37.710;2023-03-12T02:34:35;14.38;;;7.90;;
30289;SDS011;17105;55.652;37.710;2023-03-12T02:35:09;17.48;;;7.72;;
30289;SDS011;17105;55.652;37.710;2023-03-12T02:35:45;14.95;;;7.80;;
30289;SDS011;17105;55.652;37.710;2023-03-12T02:36:20;15.18;;;7.97;;
30289;SDS011;17105;55.652;37.710;2023-03-12T02:36:54;14.43;;;7.40;;
30289;SDS011;17105;55.652;37.710;2023-03-12T02:37:30;16.08;;;7.68;;
30289;SDS011;17105;55.652;37.710;2023-03-12T02:39:10;13.23;;;7.20;;
30289;SDS011;17105;55.652;37.710;2023-03-12T02:39:48;15.23;;;7.22;;
30289;SDS011;17105;55.652;37.710;2023-03-12T02:40:30;15.75;;;7.45;;
30289;SDS011;17105;55.652;37.710;2023-03-12T02:41:09;12.15;;;7.05;;
30289;SDS011;17105;55.652;37.710;2023-03-12T02:41:47;14.93;;;8.05;;
30289;SDS011;17105;55.652;37.710;2023-03-12T02:42:24;13.95;;;7.53;;
30289;SDS011;17105;55.652;37.710;2023-03-12T02:42:59;15.95;;;7.63;;
30289;SDS011;17105;55.652;37.710;2023-03-12T02:43:33;15.38;;;7.70;;
30289;SDS011;17105;55.652;37.710;2023-03-12T02:44:08;15.15;;;7.45;;
30289;SDS011;17105;55.652;37.710;2023-03-12T02:44:45;15.10;;;7.82;;
30289;SDS011;17105;55.652;37.710;2023-03-12T02:45:19;11.98;;;7.20;;
30289;SDS011;17105;55.652;37.710;2023-03-12T02:45:53;15.02;;;7.78;;
30289;SDS011;17105;55.652;37.710;2023-03-12T02:46:28;17.48;;;7.63;;
30289;SDS011;17105;55.652;37.710;2023-03-12T02:47:05;12.80;;;7.40;;
30289;SDS011;17105;55.652;37.710;2023-03-12T02:47:39;14.18;;;7.20;;
30289;SDS011;17105;55.652;37.710;2023-03-12T02:48:13;11.27;;;7.03;;
30289;SDS011;17105;55.652;37.710;2023-03-12T02:48:47;14.90;;;7.43;;
30289;SDS011;17105;55.652;37.710;2023-03-12T02:49:21;12.50;;;7.20;;
30289;SDS011;17105;55.652;37.710;2023-03-12T02:49:56;12.38;;;6.68;;
30289;SDS011;17105;55.652;37.710;2023-03-12T02:50:31;13.00;;;6.85;;
30289;SDS011;17105;55.652;37.710;2023-03-12T02:51:07;11.35;;;6.63;;
30289;SDS011;17105;55.652;37.710;2023-03-12T02:51:41;14.82;;;7.25;;
30289;SDS011;17105;55.652;37.710;2023-03-12T02:52:15;12.98;;;6.82;;
30289;SDS011;17105;55.652;37.710;2023-03-12T02:52:49;12.48;;;7.30;;
30289;SDS011;17105;55.652;37.710;2023-03-12T02:53:25;12.55;;;7.00;;
30289;SDS011;17105;55.652;37.710;2023-03-12T02:53:58;13.50;;;6.88;;
30289;SDS011;17105;55.652;37.710;2023-03-12T02:54:33;15.52;;;7.13;;
30289;SDS011;17105;55.652;37.710;2023-03-12T02:55:08;12.88;;;6.82;;
30289;SDS011;17105;55.652;37.710;2023-03-12T02:55:43;10.60;;;6.78;;
30289;SDS011;17105;55.652;37.710;2023-03-12T02:56:17;13.20;;;7.05;;
30289;SDS011;17105;55.652;37.710;2023-03-12T02:56:51;13.23;;;6.80;;
30289;SDS011;17105;55.652;37.710;2023-03-12T02:57:28;12.43;;;6.68;;
30289;SDS011;17105;55.652;37.710;2023-03-12T02:58:24;12.35;;;6.55;;
30289;SDS011;17105;55.652;37.710;2023-03-12T02:59:02;14.02;;;6.45;;
30289;SDS011;17105;55.652;37.710;2023-03-12T02:59:40;13.73;;;6.60;;
30289;SDS011;17105;55.652;37.710;2023-03-12T03:00:15;16.30;;;6.82;;
30289;SDS011;17105;55.652;37.710;2023-03-12T03:00:54;10.25;;;6.45;;
30289;SDS011;17105;55.652;37.710;2023-03-12T03:01:28;12.35;;;6.35;;
30289;SDS011;17105;55.652;37.710;2023-03-12T03:02:05;14.25;;;7.00;;
30289;SDS011;17105;55.652;37.710;2023-03-12T03:02:41;11.05;;;6.35;;
30289;SDS011;17105;55.652;37.710;2023-03-12T03:03:16;13.25;;;7.15;;
30289;SDS011;17105;55.652;37.710;2023-03-12T03:03:49;13.35;;;7.15;;
30289;SDS011;17105;55.652;37.710;2023-03-12T03:04:26;13.27;;;6.47;;
30289;SDS011;17105;55.652;37.710;2023-03-12T03:05:01;12.63;;;7.63;;
30289;SDS011;17105;55.652;37.710;2023-03-12T03:05:35;12.80;;;7.22;;
30289;SDS011;17105;55.652;37.710;2023-03-12T03:06:11;11.10;;;6.57;;
30289;SDS011;17105;55.652;37.710;2023-03-12T03:06:44;13.82;;;7.15;;
30289;SDS011;17105;55.652;37.710;2023-03-12T03:07:20;16.38;;;7.35;;
30289;SDS011;17105;55.652;37.710;2023-03-12T03:07:55;12.50;;;7.32;;
30289;SDS011;17105;55.652;37.710;2023-03-12T03:08:29;19.02;;;10.05;;
30289;SDS011;17105;55.652;37.710;2023-03-12T03:09:03;13.00;;;7.57;;
30289;SDS011;17105;55.652;37.710;2023-03-12T03:09:39;12.50;;;7.07;;
30289;SDS011;17105;55.652;37.710;2023-03-12T03:10:12;11.65;;;6.78;;
30289;SDS011;17105;55.652;37.710;2023-03-12T03:10:50;13.40;;;6.63;;
30289;SDS011;17105;55.652;37.710;2023-03-12T03:11:27;22.85;;;7.43;;
30289;SDS011;17105;55.652;37.710;2023-03-12T03:12:04;12.82;;;6.85;;
30289;SDS011;17105;55.652;37.710;2023-03-12T03:12:40;14.77;;;7.35;;
30289;SDS011;17105;55.652;37.710;2023-03-12T03:13:14;12.10;;;6.82;;
30289;SDS011;17105;55.652;37.710;2023-03-12T03:13:49;13.32;;;7.20;;
30289;SDS011;17105;55.652;37.710;2023-03-12T03:14:25;15.43;;;7.40;;
30289;SDS011;17105;55.652;37.710;2023-03-12T03:14:59;13.82;;;7.45;;
30289;SDS011;17105;55.652;37.710;2023-03-12T03:15:33;12.65;;;6.90;;
30289;SDS011;17105;55.652;37.710;2023-03-12T03:16:10;14.88;;;7.20;;
30289;SDS011;17105;55.652;37.710;2023-03-12T03:16:45;15.07;;;7.25;;
30289;SDS011;17105;55.652;37.710;2023-03-12T03:17:19;11.75;;;7.15;;
30289;SDS011;17105;55.652;37.710;2023-03-12T03:17:55;14.60;;;7.63;;
30289;SDS011;17105;55.652;37.710;2023-03-12T03:18:30;12.68;;;7.05;;
30289;SDS011;17105;55.652;37.710;2023-03-12T03:19:04;12.85;;;7.55;;
30289;SDS011;17105;55.652;37.710;2023-03-12T03:19:38;12.45;;;6.90;;
30289;SDS011;17105;55.652;37.710;2023-03-12T03:20:12;17.40;;;7.22;;
30289;SDS011;17105;55.652;37.710;2023-03-12T03:20:53;11.85;;;7.28;;
30289;SDS011;17105;55.652;37.710;2023-03-12T03:21:30;13.15;;;7.13;;
30289;SDS011;17105;55.652;37.710;2023-03-12T03:22:05;11.82;;;6.65;;
30289;SDS011;17105;55.652;37.710;2023-03-12T03:22:39;13.88;;;7.55;;
30289;SDS011;17105;55.652;37.710;2023-03-12T03:23:12;13.30;;;6.78;;
30289;SDS011;17105;55.652;37.710;2023-03-12T03:23:48;13.32;;;7.15;;
30289;SDS011;17105;55.652;37.710;2023-03-12T03:24:22;11.65;;;6.93;;
30289;SDS011;17105;55.652;37.710;2023-03-12T03:24:56;13.93;;;7.15;;
30289;SDS011;17105;55.652;37.710;2023-03-12T03:25:31;13.50;;;7.30;;
30289;SDS011;17105;55.652;37.710;2023-03-12T03:26:06;12.43;;;7.28;;
30289;SDS011;17105;55.652;37.710;2023-03-12T03:26:40;14.55;;;7.78;;
30289;SDS011;17105;55.652;37.710;2023-03-12T03:27:15;13.30;;;7.68;;
30289;SDS011;17105;55.652;37.710;2023-03-12T03:27:50;13.80;;;7.53;;
30289;SDS011;17105;55.652;37.710;2023-03-12T03:28:24;13.38;;;7.50;;
30289;SDS011;17105;55.652;37.710;2023-03-12T03:29:01;15.85;;;7.40;;
30289;SDS011;17105;55.652;37.710;2023-03-12T03:29:35;12.18;;;6.72;;
30289;SDS011;17105;55.652;37.710;2023-03-12T03:30:09;11.75;;;6.90;;
30289;SDS011;17105;55.652;37.710;2023-03-12T03:30:50;13.30;;;7.53;;
30289;SDS011;17105;55.652;37.710;2023-03-12T03:31:25;11.27;;;6.88;;
30289;SDS011;17105;55.652;37.710;2023-03-12T03:31:58;14.07;;;7.45;;